Detroit, MI

4:10 PM EDT on August 27, 2014 (GMT -0400)
Detroit Ave. & Fort Park | Change Station
CLOSE
Current Station
Personal Weather Station
Location: Lincoln Park, MI
Elevation: 587 ft
Nearby Weather Stations

Elev 587 ft 42.24 °N, 83.18 °W | Updated 5 minutes ago

Scattered Clouds
Scattered Clouds
81.0 °F
Feels Like 83 °F
N
1.7
Wind Variable Wind from NE

Today
High -- | Low -- °F
--% Chance of Precip.
Yesterday
High -- | Low -- °F
Precip. -- in
6:53 AM 8:15 PM
Waxing Crescent, 5% visible
Pressure 30.08 in
Visibility 10.0 miles
Clouds Scattered Clouds 4000 ft
Scattered Clouds 23000 ft
Heat Index 83 °F
Dew Point 65 °F
Humidity 58%
Rainfall 0.00 in
Snow Depth Not available.
UV 5 out of 12
Pollen 8.50 out of 12
Ozone Good
PM2.5 Good
Flu Activity Not available.
METAR KDTW 271953Z 30006KT 10SM SCT040 SCT230 27/16 A3009 RMK AO2 SLP184 T02670161

More Conditions Fewer Conditions

Pressure 30.08 in
Visibility 10.0 miles
Clouds Scattered Clouds 4000 ft
Scattered Clouds 23000 ft
Heat Index 83 °F
Dew Point 65 °F
Humidity 58%
Rainfall 0.00 in
Snow Depth Not available.
UV 5 out of 12
Pollen 8.50 out of 12
Ozone Good
PM2.5 Good
Flu Activity Not available.
METAR KDTW 271953Z 30006KT 10SM SCT040 SCT230 27/16 A3009 RMK AO2 SLP184 T02670161

More Conditions Fewer Conditions

10-Day Weather Forecast

Almanac

Astronomy

Aug. 27, 2014 Rise Set
Actual Time 6:53 AM EDT 8:15 PM EDT
Civil Twilight 6:24 AM EDT 8:44 PM EDT
Nautical Twilight 5:49 AM EDT 9:19 PM EDT
Astronomical Twilight 5:12 AM EDT 9:56 PM EDT
Moon 8:51 AM EDT 9:03 PM EDT
Length of Visible Light 14h 20m
Length of Day
13h 22m
Tomorrow will be 2m 41s shorter.
Waxing Crescent, 5% of the Moon is Illuminated
Today
Waxing Crescent
Sep 2
First Quarter
Sep 8
Full
Sep 15
Last Quarter
Sep 24
New

Today's Extremes

State Highs State Lows

Community

WunderPhotos

Upload Photos

1,747,775 photos uploaded!

Nearby

Air Quality

  Air Quality AQ Index Pollutant
Yesterday Good
PM10
Yesterday Good
OZONE
Current Good
PM2.5
Current Good
OZONE
Wednesday Good
OZONE
Wednesday Good
PM2.5
Thursday Good
OZONE
Thursday Good
PM2.5
Friday Good
OZONE
Friday Good
PM2.5

Snow Depth

Station Depth Elevation
No new snow has been reported.

Earthquake Activity

City Distance Mag. Time & Date
No recent earthquake activity has been reported nearby.
Minimum magnitude displayed is 2.5.

Coastal Water Temperatures

Place Temperature
Marblehead, OH 75.0 °F

Nearby Weather Stations